sensor_id;sensor_type;location;lat;lon;timestamp;P1;durP1;ratioP1;P2;durP2;ratioP2
69226;SDS011;56334;52.398;7.552;2024-02-14T00:00:20;11.57;;;4.60;;
69226;SDS011;56334;52.398;7.552;2024-02-14T00:02:46;12.70;;;4.53;;
69226;SDS011;56334;52.398;7.552;2024-02-14T00:05:14;11.70;;;4.25;;
69226;SDS011;56334;52.398;7.552;2024-02-14T00:07:40;10.43;;;4.40;;
69226;SDS011;56334;52.398;7.552;2024-02-14T00:10:07;10.18;;;4.30;;
69226;SDS011;56334;52.398;7.552;2024-02-14T00:12:33;10.65;;;4.60;;
69226;SDS011;56334;52.398;7.552;2024-02-14T00:15:00;12.93;;;5.30;;
69226;SDS011;56334;52.398;7.552;2024-02-14T00:17:28;12.75;;;5.15;;
69226;SDS011;56334;52.398;7.552;2024-02-14T00:19:54;12.18;;;5.45;;
69226;SDS011;56334;52.398;7.552;2024-02-14T00:22:20;12.38;;;5.20;;
69226;SDS011;56334;52.398;7.552;2024-02-14T00:24:46;12.70;;;5.78;;
69226;SDS011;56334;52.398;7.552;2024-02-14T00:27:13;13.07;;;5.00;;
69226;SDS011;56334;52.398;7.552;2024-02-14T00:29:43;12.60;;;5.38;;
69226;SDS011;56334;52.398;7.552;2024-02-14T00:34:37;15.27;;;5.97;;
69226;SDS011;56334;52.398;7.552;2024-02-14T00:37:03;15.13;;;5.80;;
69226;SDS011;56334;52.398;7.552;2024-02-14T00:39:29;14.05;;;5.40;;
69226;SDS011;56334;52.398;7.552;2024-02-14T00:41:55;12.38;;;5.55;;
69226;SDS011;56334;52.398;7.552;2024-02-14T00:44:21;12.32;;;6.20;;
69226;SDS011;56334;52.398;7.552;2024-02-14T00:46:47;14.60;;;6.15;;
69226;SDS011;56334;52.398;7.552;2024-02-14T00:49:14;12.82;;;5.97;;
69226;SDS011;56334;52.398;7.552;2024-02-14T00:51:40;14.02;;;6.53;;
69226;SDS011;56334;52.398;7.552;2024-02-14T00:54:06;14.82;;;7.05;;
69226;SDS011;56334;52.398;7.552;2024-02-14T00:56:33;12.98;;;6.25;;
69226;SDS011;56334;52.398;7.552;2024-02-14T00:59:01;16.83;;;6.53;;
69226;SDS011;56334;52.398;7.552;2024-02-14T01:01:27;13.88;;;6.57;;
69226;SDS011;56334;52.398;7.552;2024-02-14T01:03:53;13.70;;;6.30;;
69226;SDS011;56334;52.398;7.552;2024-02-14T01:06:19;17.00;;;7.43;;
69226;SDS011;56334;52.398;7.552;2024-02-14T01:08:45;15.38;;;7.28;;
69226;SDS011;56334;52.398;7.552;2024-02-14T01:11:11;14.73;;;7.78;;
69226;SDS011;56334;52.398;7.552;2024-02-14T01:13:37;17.35;;;7.03;;
69226;SDS011;56334;52.398;7.552;2024-02-14T01:16:03;16.00;;;8.05;;
69226;SDS011;56334;52.398;7.552;2024-02-14T01:18:29;14.07;;;6.68;;
69226;SDS011;56334;52.398;7.552;2024-02-14T01:20:55;17.27;;;8.88;;
69226;SDS011;56334;52.398;7.552;2024-02-14T01:23:23;17.30;;;8.98;;
69226;SDS011;56334;52.398;7.552;2024-02-14T01:25:49;20.70;;;8.77;;
69226;SDS011;56334;52.398;7.552;2024-02-14T01:28:15;16.67;;;8.40;;
69226;SDS011;56334;52.398;7.552;2024-02-14T01:30:42;19.50;;;9.25;;
69226;SDS011;56334;52.398;7.552;2024-02-14T01:33:08;16.15;;;8.63;;
69226;SDS011;56334;52.398;7.552;2024-02-14T01:35:34;17.90;;;8.80;;
69226;SDS011;56334;52.398;7.552;2024-02-14T01:38:01;17.38;;;8.13;;
69226;SDS011;56334;52.398;7.552;2024-02-14T01:40:28;19.13;;;8.30;;
69226;SDS011;56334;52.398;7.552;2024-02-14T01:42:54;15.60;;;8.27;;
69226;SDS011;56334;52.398;7.552;2024-02-14T01:45:20;19.35;;;9.18;;
69226;SDS011;56334;52.398;7.552;2024-02-14T01:47:47;18.40;;;9.45;;
69226;SDS011;56334;52.398;7.552;2024-02-14T01:50:13;19.25;;;8.68;;
69226;SDS011;56334;52.398;7.552;2024-02-14T01:52:39;19.10;;;8.52;;
69226;SDS011;56334;52.398;7.552;2024-02-14T01:55:05;19.58;;;9.50;;
69226;SDS011;56334;52.398;7.552;2024-02-14T01:57:33;17.25;;;8.43;;
69226;SDS011;56334;52.398;7.552;2024-02-14T01:59:59;20.05;;;9.13;;
69226;SDS011;56334;52.398;7.552;2024-02-14T02:02:29;19.10;;;8.32;;
69226;SDS011;56334;52.398;7.552;2024-02-14T02:04:55;18.40;;;9.90;;
69226;SDS011;56334;52.398;7.552;2024-02-14T02:07:21;17.33;;;9.00;;
69226;SDS011;56334;52.398;7.552;2024-02-14T02:09:47;14.38;;;7.38;;
69226;SDS011;56334;52.398;7.552;2024-02-14T02:12:13;17.35;;;8.98;;
69226;SDS011;56334;52.398;7.552;2024-02-14T02:14:39;18.73;;;9.13;;
69226;SDS011;56334;52.398;7.552;2024-02-14T02:17:06;19.13;;;9.15;;
69226;SDS011;56334;52.398;7.552;2024-02-14T02:19:35;18.70;;;9.90;;
69226;SDS011;56334;52.398;7.552;2024-02-14T02:22:01;20.08;;;9.73;;
69226;SDS011;56334;52.398;7.552;2024-02-14T02:24:27;19.33;;;9.57;;
69226;SDS011;56334;52.398;7.552;2024-02-14T02:26:53;19.02;;;9.45;;
69226;SDS011;56334;52.398;7.552;2024-02-14T02:29:20;19.00;;;9.73;;
69226;SDS011;56334;52.398;7.552;2024-02-14T02:31:47;18.55;;;10.38;;
69226;SDS011;56334;52.398;7.552;2024-02-14T02:34:13;21.08;;;10.23;;
69226;SDS011;56334;52.398;7.552;2024-02-14T02:36:39;21.75;;;9.68;;
69226;SDS011;56334;52.398;7.552;2024-02-14T02:39:06;19.83;;;9.95;;
69226;SDS011;56334;52.398;7.552;2024-02-14T02:41:32;18.75;;;9.85;;
69226;SDS011;56334;52.398;7.552;2024-02-14T02:43:58;19.67;;;9.50;;
69226;SDS011;56334;52.398;7.552;2024-02-14T02:46:26;18.58;;;9.60;;
69226;SDS011;56334;52.398;7.552;2024-02-14T02:48:52;18.88;;;10.27;;
69226;SDS011;56334;52.398;7.552;2024-02-14T02:51:22;18.70;;;9.48;;
69226;SDS011;56334;52.398;7.552;2024-02-14T02:53:48;18.60;;;9.13;;
69226;SDS011;56334;52.398;7.552;2024-02-14T02:56:14;19.35;;;9.70;;
69226;SDS011;56334;52.398;7.552;2024-02-14T02:58:40;18.88;;;9.43;;
69226;SDS011;56334;52.398;7.552;2024-02-14T03:01:10;17.77;;;8.00;;
69226;SDS011;56334;52.398;7.552;2024-02-14T03:03:37;17.33;;;7.88;;
69226;SDS011;56334;52.398;7.552;2024-02-14T03:06:03;17.52;;;9.55;;
69226;SDS011;56334;52.398;7.552;2024-02-14T03:08:29;18.13;;;9.40;;
69226;SDS011;56334;52.398;7.552;2024-02-14T03:10:56;18.95;;;8.88;;
69226;SDS011;56334;52.398;7.552;2024-02-14T03:13:25;20.42;;;10.25;;
69226;SDS011;56334;52.398;7.552;2024-02-14T03:15:51;18.80;;;9.20;;
69226;SDS011;56334;52.398;7.552;2024-02-14T03:18:17;19.05;;;9.35;;
69226;SDS011;56334;52.398;7.552;2024-02-14T03:20:43;17.35;;;8.85;;
69226;SDS011;56334;52.398;7.552;2024-02-14T03:23:09;21.35;;;10.88;;
69226;SDS011;56334;52.398;7.552;2024-02-14T03:25:35;21.75;;;10.65;;
69226;SDS011;56334;52.398;7.552;2024-02-14T03:28:02;17.73;;;8.80;;
69226;SDS011;56334;52.398;7.552;2024-02-14T03:30:33;21.17;;;10.13;;
69226;SDS011;56334;52.398;7.552;2024-02-14T03:32:59;20.60;;;9.65;;
69226;SDS011;56334;52.398;7.552;2024-02-14T03:35:25;22.13;;;11.30;;
69226;SDS011;56334;52.398;7.552;2024-02-14T03:37:52;19.38;;;8.70;;
69226;SDS011;56334;52.398;7.552;2024-02-14T03:40:18;16.77;;;8.25;;
69226;SDS011;56334;52.398;7.552;2024-02-14T03:42:47;20.58;;;9.00;;
69226;SDS011;56334;52.398;7.552;2024-02-14T03:45:14;20.98;;;10.88;;
69226;SDS011;56334;52.398;7.552;2024-02-14T03:47:40;21.45;;;10.45;;
69226;SDS011;56334;52.398;7.552;2024-02-14T03:50:07;16.67;;;8.68;;
69226;SDS011;56334;52.398;7.552;2024-02-14T03:52:33;18.08;;;8.93;;
69226;SDS011;56334;52.398;7.552;2024-02-14T03:55:00;19.42;;;9.70;;
69226;SDS011;56334;52.398;7.552;2024-02-14T03:57:26;20.70;;;10.82;;
69226;SDS011;56334;52.398;7.552;2024-02-14T03:59:53;20.77;;;10.23;;
69226;SDS011;56334;52.398;7.552;2024-02-14T04:02:19;23.15;;;10.88;;
69226;SDS011;56334;52.398;7.552;2024-02-14T04:04:45;19.08;;;9.63;;
69226;SDS011;56334;52.398;7.552;2024-02-14T04:07:12;17.05;;;8.65;;
69226;SDS011;56334;52.398;7.552;2024-02-14T04:09:38;15.20;;;7.60;;
69226;SDS011;56334;52.398;7.552;2024-02-14T04:12:04;19.00;;;9.35;;
69226;SDS011;56334;52.398;7.552;2024-02-14T04:14:30;16.30;;;8.52;;
69226;SDS011;56334;52.398;7.552;2024-02-14T04:16:56;16.52;;;8.60;;
69226;SDS011;56334;52.398;7.552;2024-02-14T04:19:22;17.38;;;7.88;;
69226;SDS011;56334;52.398;7.552;2024-02-14T04:21:48;16.73;;;7.70;;
69226;SDS011;56334;52.398;7.552;2024-02-14T04:24:15;15.80;;;8.55;;
69226;SDS011;56334;52.398;7.552;2024-02-14T04:26:44;15.85;;;9.00;;
69226;SDS011;56334;52.398;7.552;2024-02-14T04:29:10;14.57;;;6.60;;
69226;SDS011;56334;52.398;7.552;2024-02-14T04:31:36;15.18;;;7.70;;
69226;SDS011;56334;52.398;7.552;2024-02-14T04:34:02;17.52;;;8.27;;
69226;SDS011;56334;52.398;7.552;2024-02-14T04:38:57;13.90;;;5.75;;
69226;SDS011;56334;52.398;7.552;2024-02-14T04:41:23;12.13;;;5.57;;
69226;SDS011;56334;52.398;7.552;2024-02-14T04:43:49;14.35;;;5.63;;
69226;SDS011;56334;52.398;7.552;2024-02-14T04:46:15;11.00;;;4.88;;
69226;SDS011;56334;52.398;7.552;2024-02-14T04:48:41;10.25;;;4.15;;
69226;SDS011;56334;52.398;7.552;2024-02-14T04:51:07;10.20;;;4.72;;
69226;SDS011;56334;52.398;7.552;2024-02-14T04:53:33;12.77;;;5.97;;
69226;SDS011;56334;52.398;7.552;2024-02-14T04:56:00;12.15;;;5.68;;
69226;SDS011;56334;52.398;7.552;2024-02-14T04:58:26;14.00;;;6.18;;
69226;SDS011;56334;52.398;7.552;2024-02-14T05:00:53;13.75;;;5.82;;
69226;SDS011;56334;52.398;7.552;2024-02-14T05:03:20;10.88;;;4.90;;
69226;SDS011;56334;52.398;7.552;2024-02-14T05:05:46;11.13;;;4.63;;
69226;SDS011;56334;52.398;7.552;2024-02-14T05:08:12;11.52;;;4.95;;
69226;SDS011;56334;52.398;7.552;2024-02-14T05:10:38;10.95;;;4.80;;
69226;SDS011;56334;52.398;7.552;2024-02-14T05:13:04;10.18;;;4.72;;
69226;SDS011;56334;52.398;7.552;2024-02-14T05:15:30;9.50;;;3.58;;
69226;SDS011;56334;52.398;7.552;2024-02-14T05:17:56;10.55;;;4.63;;
69226;SDS011;56334;52.398;7.552;2024-02-14T05:20:22;9.68;;;4.03;;
69226;SDS011;56334;52.398;7.552;2024-02-14T05:22:48;11.45;;;3.90;;
69226;SDS011;56334;52.398;7.552;2024-02-14T05:25:14;11.07;;;3.78;;
69226;SDS011;56334;52.398;7.552;2024-02-14T05:27:40;9.55;;;3.92;;
69226;SDS011;56334;52.398;7.552;2024-02-14T05:30:07;8.75;;;3.30;;
69226;SDS011;56334;52.398;7.552;2024-02-14T05:32:34;8.48;;;2.92;;
69226;SDS011;56334;52.398;7.552;2024-02-14T05:35:00;10.52;;;4.30;;
69226;SDS011;56334;52.398;7.552;2024-02-14T05:37:30;7.43;;;2.75;;
69226;SDS011;56334;52.398;7.552;2024-02-14T05:39:56;7.63;;;3.08;;
69226;SDS011;56334;52.398;7.552;2024-02-14T05:42:22;9.40;;;3.42;;
69226;SDS011;56334;52.398;7.552;2024-02-14T05:44:48;7.47;;;2.97;;
69226;SDS011;56334;52.398;7.552;2024-02-14T05:47:14;9.75;;;3.75;;
69226;SDS011;56334;52.398;7.552;2024-02-14T05:49:43;10.10;;;3.20;;
69226;SDS011;56334;52.398;7.552;2024-02-14T05:52:09;8.85;;;3.70;;
69226;SDS011;56334;52.398;7.552;2024-02-14T05:54:35;8.40;;;2.90;;
69226;SDS011;56334;52.398;7.552;2024-02-14T05:57:01;9.73;;;4.35;;
69226;SDS011;56334;52.398;7.552;2024-02-14T05:59:27;9.27;;;4.10;;
69226;SDS011;56334;52.398;7.552;2024-02-14T06:01:54;9.63;;;4.25;;
69226;SDS011;56334;52.398;7.552;2024-02-14T06:04:20;9.45;;;3.70;;
69226;SDS011;56334;52.398;7.552;2024-02-14T06:06:46;9.82;;;3.92;;
69226;SDS011;56334;52.398;7.552;2024-02-14T06:09:12;10.90;;;4.75;;
69226;SDS011;56334;52.398;7.552;2024-02-14T06:11:38;10.20;;;4.30;;
69226;SDS011;56334;52.398;7.552;2024-02-14T06:14:05;11.48;;;4.38;;
69226;SDS011;56334;52.398;7.552;2024-02-14T06:16:32;9.40;;;3.95;;
69226;SDS011;56334;52.398;7.552;2024-02-14T06:18:58;11.73;;;4.72;;
69226;SDS011;56334;52.398;7.552;2024-02-14T06:21:24;11.00;;;4.28;;
69226;SDS011;56334;52.398;7.552;2024-02-14T06:23:51;11.77;;;4.82;;
69226;SDS011;56334;52.398;7.552;2024-02-14T06:26:17;9.98;;;3.90;;
69226;SDS011;56334;52.398;7.552;2024-02-14T06:28:46;10.40;;;3.95;;
69226;SDS011;56334;52.398;7.552;2024-02-14T06:31:12;11.75;;;5.32;;
69226;SDS011;56334;52.398;7.552;2024-02-14T06:33:39;12.10;;;5.28;;
69226;SDS011;56334;52.398;7.552;2024-02-14T06:36:05;13.30;;;5.22;;
69226;SDS011;56334;52.398;7.552;2024-02-14T06:38:31;11.90;;;4.72;;
69226;SDS011;56334;52.398;7.552;2024-02-14T06:40:57;12.25;;;5.38;;
69226;SDS011;56334;52.398;7.552;2024-02-14T06:43:23;13.52;;;4.80;;
69226;SDS011;56334;52.398;7.552;2024-02-14T06:45:49;11.13;;;5.10;;
69226;SDS011;56334;52.398;7.552;2024-02-14T06:48:15;13.05;;;5.65;;
69226;SDS011;56334;52.398;7.552;2024-02-14T06:50:41;14.15;;;6.07;;
69226;SDS011;56334;52.398;7.552;2024-02-14T06:53:07;15.60;;;6.55;;
69226;SDS011;56334;52.398;7.552;2024-02-14T06:55:33;13.88;;;6.05;;
69226;SDS011;56334;52.398;7.552;2024-02-14T06:57:59;17.05;;;6.00;;
69226;SDS011;56334;52.398;7.552;2024-02-14T07:00:25;16.10;;;7.50;;
69226;SDS011;56334;52.398;7.552;2024-02-14T07:02:53;14.27;;;5.65;;
69226;SDS011;56334;52.398;7.552;2024-02-14T07:05:19;14.27;;;5.72;;
69226;SDS011;56334;52.398;7.552;2024-02-14T07:07:46;17.35;;;7.65;;
69226;SDS011;56334;52.398;7.552;2024-02-14T07:10:12;16.23;;;7.15;;
69226;SDS011;56334;52.398;7.552;2024-02-14T07:12:38;17.25;;;7.32;;
69226;SDS011;56334;52.398;7.552;2024-02-14T07:15:06;13.43;;;6.50;;
69226;SDS011;56334;52.398;7.552;2024-02-14T07:17:33;16.80;;;7.63;;
69226;SDS011;56334;52.398;7.552;2024-02-14T07:20:00;19.27;;;8.05;;
69226;SDS011;56334;52.398;7.552;2024-02-14T07:22:26;15.85;;;6.78;;
69226;SDS011;56334;52.398;7.552;2024-02-14T07:24:52;15.73;;;6.93;;
69226;SDS011;56334;52.398;7.552;2024-02-14T07:27:18;15.60;;;6.93;;
69226;SDS011;56334;52.398;7.552;2024-02-14T07:29:45;17.23;;;7.38;;
69226;SDS011;56334;52.398;7.552;2024-02-14T07:32:11;18.75;;;8.25;;
69226;SDS011;56334;52.398;7.552;2024-02-14T07:34:38;20.30;;;7.85;;
69226;SDS011;56334;52.398;7.552;2024-02-14T07:37:05;17.38;;;8.30;;
69226;SDS011;56334;52.398;7.552;2024-02-14T07:39:31;19.20;;;7.35;;
69226;SDS011;56334;52.398;7.552;2024-02-14T07:41:57;18.35;;;8.10;;
69226;SDS011;56334;52.398;7.552;2024-02-14T07:44:23;16.33;;;6.80;;
69226;SDS011;56334;52.398;7.552;2024-02-14T07:46:49;13.35;;;6.43;;
69226;SDS011;56334;52.398;7.552;2024-02-14T07:49:15;17.48;;;7.72;;
69226;SDS011;56334;52.398;7.552;2024-02-14T07:51:42;14.00;;;6.82;;
69226;SDS011;56334;52.398;7.552;2024-02-14T07:54:08;17.17;;;8.13;;
69226;SDS011;56334;52.398;7.552;2024-02-14T07:56:34;17.80;;;7.38;;
69226;SDS011;56334;52.398;7.552;2024-02-14T07:59:00;18.95;;;8.30;;
69226;SDS011;56334;52.398;7.552;2024-02-14T08:01:26;18.17;;;8.23;;
69226;SDS011;56334;52.398;7.552;2024-02-14T08:03:53;17.35;;;8.25;;
69226;SDS011;56334;52.398;7.552;2024-02-14T08:06:20;14.88;;;6.70;;
69226;SDS011;56334;52.398;7.552;2024-02-14T08:08:45;18.45;;;8.00;;
69226;SDS011;56334;52.398;7.552;2024-02-14T08:11:14;16.65;;;7.70;;
69226;SDS011;56334;52.398;7.552;2024-02-14T08:13:40;19.52;;;8.63;;
69226;SDS011;56334;52.398;7.552;2024-02-14T08:16:06;18.30;;;7.22;;
69226;SDS011;56334;52.398;7.552;2024-02-14T08:18:32;15.77;;;7.47;;
69226;SDS011;56334;52.398;7.552;2024-02-14T08:20:58;15.93;;;7.63;;
69226;SDS011;56334;52.398;7.552;2024-02-14T08:23:24;16.17;;;7.80;;
69226;SDS011;56334;52.398;7.552;2024-02-14T08:25:50;17.02;;;6.68;;
69226;SDS011;56334;52.398;7.552;2024-02-14T08:28:17;15.18;;;7.20;;
69226;SDS011;56334;52.398;7.552;2024-02-14T08:30:45;14.48;;;6.68;;
69226;SDS011;56334;52.398;7.552;2024-02-14T08:33:12;15.63;;;6.68;;
69226;SDS011;56334;52.398;7.552;2024-02-14T08:35:38;16.27;;;7.03;;
69226;SDS011;56334;52.398;7.552;2024-02-14T08:38:04;12.75;;;5.18;;
69226;SDS011;56334;52.398;7.552;2024-02-14T08:40:31;14.63;;;5.97;;
69226;SDS011;56334;52.398;7.552;2024-02-14T08:42:57;12.38;;;5.63;;
69226;SDS011;56334;52.398;7.552;2024-02-14T08:45:24;14.55;;;6.03;;
69226;SDS011;56334;52.398;7.552;2024-02-14T08:47:50;10.65;;;4.32;;
69226;SDS011;56334;52.398;7.552;2024-02-14T08:50:16;11.13;;;5.40;;
69226;SDS011;56334;52.398;7.552;2024-02-14T08:52:44;12.00;;;4.75;;
69226;SDS011;56334;52.398;7.552;2024-02-14T08:55:10;11.95;;;5.38;;
69226;SDS011;56334;52.398;7.552;2024-02-14T08:57:42;10.85;;;4.47;;
69226;SDS011;56334;52.398;7.552;2024-02-14T09:00:08;11.73;;;5.30;;
69226;SDS011;56334;52.398;7.552;2024-02-14T09:02:35;11.40;;;5.07;;
69226;SDS011;56334;52.398;7.552;2024-02-14T09:05:02;10.43;;;4.50;;
69226;SDS011;56334;52.398;7.552;2024-02-14T09:07:30;10.73;;;4.18;;
69226;SDS011;56334;52.398;7.552;2024-02-14T09:09:57;10.52;;;3.90;;
69226;SDS011;56334;52.398;7.552;2024-02-14T09:12:25;10.20;;;4.25;;
69226;SDS011;56334;52.398;7.552;2024-02-14T09:14:51;12.50;;;5.00;;
69226;SDS011;56334;52.398;7.552;2024-02-14T09:17:16;10.40;;;4.22;;
69226;SDS011;56334;52.398;7.552;2024-02-14T09:19:43;11.45;;;4.90;;
69226;SDS011;56334;52.398;7.552;2024-02-14T09:22:09;10.82;;;4.63;;
69226;SDS011;56334;52.398;7.552;2024-02-14T09:24:35;12.05;;;4.90;;
69226;SDS011;56334;52.398;7.552;2024-02-14T09:27:01;10.10;;;4.05;;
69226;SDS011;56334;52.398;7.552;2024-02-14T09:29:30;11.80;;;4.90;;
69226;SDS011;56334;52.398;7.552;2024-02-14T09:31:56;12.63;;;4.88;;
69226;SDS011;56334;52.398;7.552;2024-02-14T09:34:22;11.30;;;4.88;;
69226;SDS011;56334;52.398;7.552;2024-02-14T09:36:50;11.25;;;4.95;;
69226;SDS011;56334;52.398;7.552;2024-02-14T09:39:18;11.77;;;4.70;;
69226;SDS011;56334;52.398;7.552;2024-02-14T09:41:46;15.75;;;5.60;;
69226;SDS011;56334;52.398;7.552;2024-02-14T09:44:19;10.50;;;4.38;;
69226;SDS011;56334;52.398;7.552;2024-02-14T09:49:12;13.05;;;5.10;;
69226;SDS011;56334;52.398;7.552;2024-02-14T09:51:39;9.65;;;4.07;;
69226;SDS011;56334;52.398;7.552;2024-02-14T09:54:05;12.63;;;5.68;;
69226;SDS011;56334;52.398;7.552;2024-02-14T09:56:31;10.70;;;4.82;;
69226;SDS011;56334;52.398;7.552;2024-02-14T09:58:57;11.93;;;5.07;;
69226;SDS011;56334;52.398;7.552;2024-02-14T10:01:25;12.73;;;5.68;;
69226;SDS011;56334;52.398;7.552;2024-02-14T10:03:52;12.85;;;5.68;;
69226;SDS011;56334;52.398;7.552;2024-02-14T10:06:18;12.07;;;5.20;;
69226;SDS011;56334;52.398;7.552;2024-02-14T10:08:46;12.20;;;5.30;;
69226;SDS011;56334;52.398;7.552;2024-02-14T10:11:12;12.20;;;5.28;;
69226;SDS011;56334;52.398;7.552;2024-02-14T10:13:40;14.00;;;5.40;;
69226;SDS011;56334;52.398;7.552;2024-02-14T10:16:06;11.60;;;5.03;;
69226;SDS011;56334;52.398;7.552;2024-02-14T10:18:33;13.55;;;5.97;;
69226;SDS011;56334;52.398;7.552;2024-02-14T10:20:59;14.32;;;6.32;;
69226;SDS011;56334;52.398;7.552;2024-02-14T10:23:27;12.55;;;5.50;;
69226;SDS011;56334;52.398;7.552;2024-02-14T10:25:54;13.88;;;6.60;;
69226;SDS011;56334;52.398;7.552;2024-02-14T10:28:21;14.93;;;6.32;;
69226;SDS011;56334;52.398;7.552;2024-02-14T10:30:48;12.98;;;5.53;;
69226;SDS011;56334;52.398;7.552;2024-02-14T10:33:17;15.88;;;6.50;;
69226;SDS011;56334;52.398;7.552;2024-02-14T10:35:46;14.98;;;6.28;;
69226;SDS011;56334;52.398;7.552;2024-02-14T10:38:13;14.07;;;6.22;;
69226;SDS011;56334;52.398;7.552;2024-02-14T10:40:41;14.88;;;6.00;;
69226;SDS011;56334;52.398;7.552;2024-02-14T10:43:08;16.88;;;6.60;;
69226;SDS011;56334;52.398;7.552;2024-02-14T10:45:37;13.77;;;6.10;;
69226;SDS011;56334;52.398;7.552;2024-02-14T10:48:04;12.40;;;5.20;;
69226;SDS011;56334;52.398;7.552;2024-02-14T10:50:33;11.95;;;5.10;;
69226;SDS011;56334;52.398;7.552;2024-02-14T10:53:05;10.80;;;4.75;;
69226;SDS011;56334;52.398;7.552;2024-02-14T10:55:32;14.05;;;5.80;;
69226;SDS011;56334;52.398;7.552;2024-02-14T10:57:59;15.32;;;5.90;;
69226;SDS011;56334;52.398;7.552;2024-02-14T11:00:27;14.02;;;6.18;;
69226;SDS011;56334;52.398;7.552;2024-02-14T11:02:53;12.57;;;5.53;;
69226;SDS011;56334;52.398;7.552;2024-02-14T11:05:19;13.10;;;5.82;;
69226;SDS011;56334;52.398;7.552;2024-02-14T11:07:49;11.45;;;5.28;;
69226;SDS011;56334;52.398;7.552;2024-02-14T11:10:19;12.10;;;4.93;;
69226;SDS011;56334;52.398;7.552;2024-02-14T11:12:46;12.60;;;4.60;;
69226;SDS011;56334;52.398;7.552;2024-02-14T11:15:20;11.63;;;5.55;;
69226;SDS011;56334;52.398;7.552;2024-02-14T11:17:47;11.02;;;4.25;;
69226;SDS011;56334;52.398;7.552;2024-02-14T11:20:30;12.40;;;5.55;;
69226;SDS011;56334;52.398;7.552;2024-02-14T11:22:57;13.48;;;5.60;;
69226;SDS011;56334;52.398;7.552;2024-02-14T11:25:28;11.20;;;4.75;;
69226;SDS011;56334;52.398;7.552;2024-02-14T11:27:58;10.52;;;4.85;;
69226;SDS011;56334;52.398;7.552;2024-02-14T11:30:36;13.18;;;5.22;;
69226;SDS011;56334;52.398;7.552;2024-02-14T11:33:35;12.38;;;5.25;;
69226;SDS011;56334;52.398;7.552;2024-02-14T11:35:55;11.32;;;5.40;;
69226;SDS011;56334;52.398;7.552;2024-02-14T11:38:22;10.85;;;4.80;;
69226;SDS011;56334;52.398;7.552;2024-02-14T11:40:50;11.20;;;4.28;;
69226;SDS011;56334;52.398;7.552;2024-02-14T11:43:20;9.93;;;4.25;;
69226;SDS011;56334;52.398;7.552;2024-02-14T11:45:46;9.30;;;3.60;;
69226;SDS011;56334;52.398;7.552;2024-02-14T11:48:17;10.68;;;4.07;;
69226;SDS011;56334;52.398;7.552;2024-02-14T11:50:44;10.18;;;4.03;;
69226;SDS011;56334;52.398;7.552;2024-02-14T11:53:11;11.25;;;4.75;;
69226;SDS011;56334;52.398;7.552;2024-02-14T11:55:38;12.50;;;4.28;;
69226;SDS011;56334;52.398;7.552;2024-02-14T11:58:08;10.70;;;4.47;;
69226;SDS011;56334;52.398;7.552;2024-02-14T12:00:38;12.55;;;4.65;;
69226;SDS011;56334;52.398;7.552;2024-02-14T12:03:10;10.65;;;4.32;;
69226;SDS011;56334;52.398;7.552;2024-02-14T12:05:37;10.02;;;4.22;;
69226;SDS011;56334;52.398;7.552;2024-02-14T12:08:04;11.95;;;4.40;;
69226;SDS011;56334;52.398;7.552;2024-02-14T12:10:32;9.32;;;3.97;;
69226;SDS011;56334;52.398;7.552;2024-02-14T12:13:04;10.05;;;4.35;;
69226;SDS011;56334;52.398;7.552;2024-02-14T12:15:36;11.73;;;5.07;;
69226;SDS011;56334;52.398;7.552;2024-02-14T12:18:02;12.27;;;5.00;;
69226;SDS011;56334;52.398;7.552;2024-02-14T12:20:28;8.88;;;3.92;;
69226;SDS011;56334;52.398;7.552;2024-02-14T12:22:54;10.43;;;4.25;;
69226;SDS011;56334;52.398;7.552;2024-02-14T12:25:23;11.88;;;4.68;;
69226;SDS011;56334;52.398;7.552;2024-02-14T12:27:50;11.40;;;4.90;;
69226;SDS011;56334;52.398;7.552;2024-02-14T12:30:16;12.63;;;5.07;;
69226;SDS011;56334;52.398;7.552;2024-02-14T12:32:43;10.85;;;5.03;;
69226;SDS011;56334;52.398;7.552;2024-02-14T12:35:10;9.80;;;4.32;;
69226;SDS011;56334;52.398;7.552;2024-02-14T12:37:36;12.00;;;5.20;;
69226;SDS011;56334;52.398;7.552;2024-02-14T12:40:02;11.95;;;5.15;;
69226;SDS011;56334;52.398;7.552;2024-02-14T12:42:30;13.77;;;5.97;;
69226;SDS011;56334;52.398;7.552;2024-02-14T12:44:57;16.35;;;6.50;;
69226;SDS011;56334;52.398;7.552;2024-02-14T12:47:24;13.07;;;5.90;;
69226;SDS011;56334;52.398;7.552;2024-02-14T12:49:56;15.27;;;6.85;;
69226;SDS011;56334;52.398;7.552;2024-02-14T12:52:24;15.52;;;6.97;;
69226;SDS011;56334;52.398;7.552;2024-02-14T12:54:50;13.38;;;5.72;;
69226;SDS011;56334;52.398;7.552;2024-02-14T12:57:16;15.25;;;6.75;;
69226;SDS011;56334;52.398;7.552;2024-02-14T12:59:43;17.10;;;7.35;;
69226;SDS011;56334;52.398;7.552;2024-02-14T13:02:10;16.65;;;7.07;;
69226;SDS011;56334;52.398;7.552;2024-02-14T13:04:36;16.20;;;7.03;;
69226;SDS011;56334;52.398;7.552;2024-02-14T13:07:03;17.30;;;7.47;;
69226;SDS011;56334;52.398;7.552;2024-02-14T13:09:30;17.02;;;7.50;;
69226;SDS011;56334;52.398;7.552;2024-02-14T13:11:56;15.25;;;6.88;;
69226;SDS011;56334;52.398;7.552;2024-02-14T13:14:22;16.00;;;6.82;;
69226;SDS011;56334;52.398;7.552;2024-02-14T13:16:47;16.00;;;6.60;;
69226;SDS011;56334;52.398;7.552;2024-02-14T13:19:14;16.45;;;6.95;;
69226;SDS011;56334;52.398;7.552;2024-02-14T13:21:40;16.73;;;6.63;;
69226;SDS011;56334;52.398;7.552;2024-02-14T13:24:11;16.85;;;7.82;;
69226;SDS011;56334;52.398;7.552;2024-02-14T13:26:40;15.88;;;6.75;;
69226;SDS011;56334;52.398;7.552;2024-02-14T13:29:06;15.40;;;6.80;;
69226;SDS011;56334;52.398;7.552;2024-02-14T13:31:32;17.83;;;7.18;;
69226;SDS011;56334;52.398;7.552;2024-02-14T13:33:58;14.57;;;6.78;;
69226;SDS011;56334;52.398;7.552;2024-02-14T13:36:24;16.33;;;6.97;;
69226;SDS011;56334;52.398;7.552;2024-02-14T13:38:50;14.45;;;7.22;;
69226;SDS011;56334;52.398;7.552;2024-02-14T13:41:16;17.55;;;7.10;;
69226;SDS011;56334;52.398;7.552;2024-02-14T13:43:42;13.25;;;5.97;;
69226;SDS011;56334;52.398;7.552;2024-02-14T13:46:10;14.18;;;6.55;;
69226;SDS011;56334;52.398;7.552;2024-02-14T13:48:36;15.57;;;6.93;;
69226;SDS011;56334;52.398;7.552;2024-02-14T13:51:03;16.08;;;6.20;;
69226;SDS011;56334;52.398;7.552;2024-02-14T13:53:29;15.25;;;6.20;;
69226;SDS011;56334;52.398;7.552;2024-02-14T13:55:55;10.75;;;4.82;;
69226;SDS011;56334;52.398;7.552;2024-02-14T13:58:21;15.88;;;6.18;;
69226;SDS011;56334;52.398;7.552;2024-02-14T14:00:47;12.52;;;5.07;;
69226;SDS011;56334;52.398;7.552;2024-02-14T14:03:13;12.75;;;5.22;;
69226;SDS011;56334;52.398;7.552;2024-02-14T14:05:39;12.63;;;4.95;;
69226;SDS011;56334;52.398;7.552;2024-02-14T14:08:05;12.02;;;5.47;;
69226;SDS011;56334;52.398;7.552;2024-02-14T14:10:31;12.23;;;4.97;;
69226;SDS011;56334;52.398;7.552;2024-02-14T14:12:57;12.55;;;4.97;;
69226;SDS011;56334;52.398;7.552;2024-02-14T14:15:23;10.52;;;4.15;;
69226;SDS011;56334;52.398;7.552;2024-02-14T14:17:51;11.15;;;4.80;;
69226;SDS011;56334;52.398;7.552;2024-02-14T14:20:17;10.95;;;4.40;;
69226;SDS011;56334;52.398;7.552;2024-02-14T14:22:43;9.73;;;4.05;;
69226;SDS011;56334;52.398;7.552;2024-02-14T14:25:10;10.75;;;4.75;;
69226;SDS011;56334;52.398;7.552;2024-02-14T14:27:36;11.27;;;4.75;;
69226;SDS011;56334;52.398;7.552;2024-02-14T14:30:02;10.52;;;4.47;;
69226;SDS011;56334;52.398;7.552;2024-02-14T14:32:29;11.75;;;4.07;;
69226;SDS011;56334;52.398;7.552;2024-02-14T14:34:55;11.05;;;4.22;;
69226;SDS011;56334;52.398;7.552;2024-02-14T14:37:21;12.43;;;4.45;;
69226;SDS011;56334;52.398;7.552;2024-02-14T14:39:47;9.95;;;4.30;;